createdAt,value
2022-09-18T00:00:45.727Z,23.28
2022-09-18T00:03:19.224Z,23.27
2022-09-18T00:05:51.978Z,23.26
2022-09-18T00:08:25.022Z,23.26
2022-09-18T00:10:57.932Z,23.26
2022-09-18T00:13:30.997Z,23.25
2022-09-18T00:16:04.072Z,23.25
2022-09-18T00:18:37.173Z,23.24
2022-09-18T00:21:10.012Z,23.24
2022-09-18T00:23:42.977Z,23.24
2022-09-18T00:26:16.095Z,23.23
2022-09-18T00:28:49.035Z,23.23
2022-09-18T00:31:22.160Z,23.23
2022-09-18T00:33:55.182Z,23.23
2022-09-18T00:36:28.018Z,23.23
2022-09-18T00:39:15.022Z,23.22
2022-09-18T00:41:48.043Z,23.22
2022-09-18T00:44:21.110Z,23.22
2022-09-18T00:46:54.142Z,23.22
2022-09-18T00:49:26.850Z,23.21
2022-09-18T00:51:59.750Z,23.21
2022-09-18T00:54:33.068Z,23.21
2022-09-18T00:57:06.077Z,23.20
2022-09-18T00:59:39.116Z,23.20
2022-09-18T01:02:12.121Z,23.20
2022-09-18T01:04:45.228Z,23.20
2022-09-18T01:07:18.031Z,23.20
2022-09-18T01:09:51.116Z,23.19
2022-09-18T01:12:24.102Z,23.19
2022-09-18T01:14:57.113Z,23.19
2022-09-18T01:17:30.124Z,23.18
2022-09-18T01:20:03.250Z,23.18
2022-09-18T01:22:36.107Z,23.18
2022-09-18T01:25:09.160Z,23.17
2022-09-18T01:27:42.135Z,23.17
2022-09-18T01:30:15.133Z,23.17
2022-09-18T01:32:54.091Z,23.17
2022-09-18T01:35:40.983Z,23.16
2022-09-18T01:38:00.092Z,23.16
2022-09-18T01:40:33.236Z,23.16
2022-09-18T01:43:05.795Z,23.16
2022-09-18T01:45:39.191Z,23.16
2022-09-18T01:48:12.186Z,23.15
2022-09-18T01:50:45.273Z,23.15
2022-09-18T01:53:18.116Z,23.14
2022-09-18T01:55:51.103Z,23.14
2022-09-18T01:58:24.151Z,23.13
2022-09-18T02:00:57.186Z,23.13
2022-09-18T02:03:30.194Z,23.12
2022-09-18T02:06:03.318Z,23.12
2022-09-18T02:08:36.205Z,23.11
2022-09-18T02:11:09.178Z,23.11
2022-09-18T02:13:43.216Z,23.11
2022-09-18T02:16:16.399Z,23.10
2022-09-18T02:18:49.201Z,23.10
2022-09-18T02:21:22.258Z,23.10
2022-09-18T02:23:55.211Z,23.10
2022-09-18T02:26:28.179Z,23.09
2022-09-18T02:29:01.229Z,23.09
2022-09-18T02:31:34.405Z,23.09
2022-09-18T02:34:07.210Z,23.09
2022-09-18T02:36:40.284Z,23.08
2022-09-18T02:39:13.267Z,23.08
2022-09-18T02:41:46.215Z,23.08
2022-09-18T02:44:19.204Z,23.08
2022-09-18T02:46:52.366Z,23.07
2022-09-18T02:49:25.136Z,23.07
2022-09-18T02:51:58.386Z,23.07
2022-09-18T02:54:31.223Z,23.06
2022-09-18T02:57:04.235Z,23.06
2022-09-18T02:59:37.235Z,23.05
2022-09-18T03:02:10.405Z,23.05
2022-09-18T03:04:43.288Z,23.05
2022-09-18T03:07:22.382Z,23.04
2022-09-18T03:09:55.249Z,23.04
2022-09-18T03:12:28.257Z,23.04
2022-09-18T03:15:01.182Z,23.03
2022-09-18T03:17:33.930Z,23.03
2022-09-18T03:20:07.203Z,23.03
2022-09-18T03:22:40.368Z,23.03
2022-09-18T03:25:13.305Z,23.03
2022-09-18T03:27:46.430Z,23.02
2022-09-18T03:30:20.303Z,23.02
2022-09-18T03:32:53.285Z,23.02
2022-09-18T03:35:26.309Z,23.02
2022-09-18T03:37:59.408Z,23.02
2022-09-18T03:40:32.306Z,23.01
2022-09-18T03:43:05.237Z,23.01
2022-09-18T03:45:38.236Z,23.01
2022-09-18T03:48:11.271Z,23.00
2022-09-18T03:50:44.160Z,23.00
2022-09-18T03:53:17.389Z,23.00
2022-09-18T03:55:50.321Z,22.99
2022-09-18T03:58:23.310Z,22.99
2022-09-18T04:00:56.348Z,22.99
2022-09-18T04:03:32.304Z,22.99
2022-09-18T04:06:05.341Z,22.98
2022-09-18T04:08:38.422Z,22.98
2022-09-18T04:11:11.317Z,22.98
2022-09-18T04:13:44.364Z,22.97
2022-09-18T04:16:17.473Z,22.96
2022-09-18T04:18:50.381Z,22.96
2022-09-18T04:21:23.311Z,22.95
2022-09-18T04:23:56.404Z,22.95
2022-09-18T04:26:29.371Z,22.94
2022-09-18T04:29:02.323Z,22.94
2022-09-18T04:31:35.447Z,22.93
2022-09-18T04:34:08.357Z,22.92
2022-09-18T04:36:41.346Z,22.92
2022-09-18T04:39:14.367Z,22.91
2022-09-18T04:41:47.044Z,22.91
2022-09-18T04:44:20.414Z,22.90
2022-09-18T04:46:53.427Z,22.89
2022-09-18T04:49:26.394Z,22.89
2022-09-18T04:51:59.423Z,22.88
2022-09-18T04:54:32.550Z,22.88
2022-09-18T04:57:05.344Z,22.88
2022-09-18T04:59:38.408Z,22.87
2022-09-18T05:02:11.439Z,22.87
2022-09-18T05:04:44.371Z,22.87
2022-09-18T05:07:17.413Z,22.86
2022-09-18T05:09:50.501Z,22.86
2022-09-18T05:12:23.450Z,22.85
2022-09-18T05:14:56.462Z,22.84
2022-09-18T05:17:29.387Z,22.84
2022-09-18T05:20:02.454Z,22.83
2022-09-18T05:22:35.449Z,22.82
2022-09-18T05:25:08.570Z,22.82
2022-09-18T05:27:41.478Z,22.81
2022-09-18T05:30:14.411Z,22.80
2022-09-18T05:32:47.490Z,22.79
2022-09-18T05:35:20.457Z,22.79
2022-09-18T05:37:53.468Z,22.78
2022-09-18T05:40:26.666Z,22.77
2022-09-18T05:42:59.535Z,22.77
2022-09-18T05:45:32.484Z,22.77
2022-09-18T05:48:05.519Z,22.76
2022-09-18T05:50:38.295Z,22.76
2022-09-18T05:53:11.473Z,22.76
2022-09-18T05:55:44.642Z,22.76
2022-09-18T05:58:17.542Z,22.76
2022-09-18T06:00:50.524Z,22.76
2022-09-18T06:03:23.332Z,22.76
2022-09-18T06:05:56.320Z,22.76
2022-09-18T06:08:29.452Z,22.76
2022-09-18T06:11:02.474Z,22.76
2022-09-18T06:13:35.536Z,22.77
2022-09-18T06:16:08.606Z,22.77
2022-09-18T06:18:41.493Z,22.77
2022-09-18T06:21:14.507Z,22.77
2022-09-18T06:23:47.498Z,22.77
2022-09-18T06:26:20.690Z,22.77
2022-09-18T06:28:53.395Z,22.77
2022-09-18T06:31:26.335Z,22.77
2022-09-18T06:33:59.370Z,22.77
2022-09-18T06:36:32.315Z,22.77
2022-09-18T06:39:05.417Z,22.76
2022-09-18T06:41:38.464Z,22.76
2022-09-18T06:44:11.264Z,22.76
2022-09-18T06:46:44.307Z,22.76
2022-09-18T06:49:17.375Z,22.75
2022-09-18T06:51:50.408Z,22.74
2022-09-18T06:54:23.573Z,22.74
2022-09-18T06:56:56.709Z,22.73
2022-09-18T06:59:29.532Z,22.72
2022-09-18T07:02:02.697Z,22.71
2022-09-18T07:04:35.406Z,22.67
2022-09-18T07:07:08.453Z,22.61
2022-09-18T07:09:41.363Z,22.53
2022-09-18T07:12:14.461Z,22.45
2022-09-18T07:14:47.311Z,22.39
2022-09-18T07:17:24.389Z,22.37
2022-09-18T07:19:53.438Z,22.36
2022-09-18T07:22:26.392Z,22.37
2022-09-18T07:24:59.582Z,22.39
2022-09-18T07:30:22.808Z,22.43
2022-09-18T07:32:55.622Z,22.45
2022-09-18T07:35:28.643Z,22.49
2022-09-18T07:38:01.654Z,22.52
2022-09-18T07:40:34.662Z,22.55
2022-09-18T07:43:07.608Z,22.58
2022-09-18T07:45:40.574Z,22.60
2022-09-18T07:48:13.499Z,22.63
2022-09-18T07:50:46.684Z,22.66
2022-09-18T07:53:19.506Z,22.68
2022-09-18T07:55:52.497Z,22.70
2022-09-18T07:58:39.427Z,22.73
2022-09-18T08:01:12.467Z,22.75
2022-09-18T08:03:45.456Z,22.77
2022-09-18T08:06:18.363Z,22.79
2022-09-18T08:08:54.920Z,22.81
2022-09-18T08:11:24.434Z,22.83
2022-09-18T08:13:57.379Z,22.84
2022-09-18T08:16:30.576Z,22.86
2022-09-18T08:19:03.384Z,22.87
2022-09-18T08:21:36.677Z,22.89
2022-09-18T08:24:09.696Z,22.91
2022-09-18T08:26:42.430Z,22.93
2022-09-18T08:29:15.545Z,22.94
2022-09-18T08:31:48.791Z,22.96
2022-09-18T08:34:21.388Z,22.97
2022-09-18T08:36:54.553Z,22.99
2022-09-18T08:39:27.387Z,23.00
2022-09-18T08:42:00.580Z,23.01
2022-09-18T08:44:33.416Z,23.02
2022-09-18T08:47:06.587Z,23.03
2022-09-18T08:49:45.302Z,23.05
2022-09-18T08:52:18.392Z,23.06
2022-09-18T08:54:51.406Z,23.07
2022-09-18T08:57:38.323Z,23.08
2022-09-18T09:00:11.419Z,23.09
2022-09-18T09:02:44.537Z,23.10
2022-09-18T09:05:17.469Z,23.11
2022-09-18T09:07:50.443Z,23.12
2022-09-18T09:10:23.609Z,23.14
2022-09-18T09:12:56.478Z,23.15
2022-09-18T09:15:29.565Z,23.17
2022-09-18T09:18:02.558Z,23.18
2022-09-18T09:20:35.455Z,23.19
2022-09-18T09:23:08.433Z,23.20
2022-09-18T09:25:41.468Z,23.21
2022-09-18T09:28:16.459Z,23.22
2022-09-18T09:30:47.678Z,23.23
2022-09-18T09:33:20.701Z,23.25
2022-09-18T09:35:53.662Z,23.26
2022-09-18T09:38:26.578Z,23.27
2022-09-18T09:41:02.399Z,23.28
2022-09-18T09:43:35.623Z,23.29
2022-09-18T09:46:08.647Z,23.30
2022-09-18T09:48:42.232Z,23.31
2022-09-18T09:51:15.628Z,23.32
2022-09-18T09:53:48.489Z,23.33
2022-09-18T09:56:21.553Z,23.34
2022-09-18T09:58:54.641Z,23.35
2022-09-18T10:01:27.550Z,23.36
2022-09-18T10:04:00.685Z,23.37
2022-09-18T10:06:33.633Z,23.38
2022-09-18T10:09:06.577Z,23.38
2022-09-18T10:11:39.667Z,23.40
2022-09-18T10:14:12.878Z,23.40
2022-09-18T10:16:45.630Z,23.41
2022-09-18T10:19:18.808Z,23.42
2022-09-18T10:21:51.716Z,23.43
2022-09-18T10:24:24.615Z,23.44
2022-09-18T10:26:57.879Z,23.44
2022-09-18T10:29:35.068Z,23.45
2022-09-18T10:32:03.644Z,23.45
2022-09-18T10:34:36.735Z,23.45
2022-09-18T10:37:09.814Z,23.46
2022-09-18T10:39:42.906Z,23.46
2022-09-18T10:42:15.564Z,23.47
2022-09-18T10:44:48.857Z,23.47
2022-09-18T10:47:21.856Z,23.47
2022-09-18T10:50:08.963Z,23.48
2022-09-18T10:52:41.936Z,23.48
2022-09-18T10:55:14.859Z,23.48
2022-09-18T10:57:47.600Z,23.48
2022-09-18T11:00:20.728Z,23.49
2022-09-18T11:02:53.612Z,23.49
2022-09-18T11:05:27.053Z,23.49
2022-09-18T11:07:59.867Z,23.49
2022-09-18T11:10:32.887Z,23.49
2022-09-18T11:13:05.689Z,23.49
2022-09-18T11:15:38.685Z,23.49
2022-09-18T11:18:11.770Z,23.50
2022-09-18T11:20:44.884Z,23.50
2022-09-18T11:23:17.807Z,23.50
2022-09-18T11:25:50.717Z,23.50
2022-09-18T11:28:23.705Z,23.50
2022-09-18T11:30:56.984Z,23.50
2022-09-18T11:33:29.927Z,23.50
2022-09-18T11:36:03.093Z,23.50
2022-09-18T11:38:36.056Z,23.50
2022-09-18T11:41:11.627Z,23.50
2022-09-18T11:43:44.949Z,23.50
2022-09-18T11:46:17.971Z,23.51
2022-09-18T11:48:51.082Z,23.51
2022-09-18T11:51:23.786Z,23.51
2022-09-18T11:53:57.034Z,23.51
2022-09-18T11:56:30.118Z,23.51
2022-09-18T11:59:03.669Z,23.51
2022-09-18T12:01:36.762Z,23.52
2022-09-18T12:04:09.688Z,23.52
2022-09-18T12:06:45.942Z,23.52
2022-09-18T12:09:17.391Z,23.53
2022-09-18T12:11:50.402Z,23.53
2022-09-18T12:14:23.349Z,23.54
2022-09-18T12:17:00.259Z,23.54
2022-09-18T12:19:29.512Z,23.55
2022-09-18T12:22:02.590Z,23.55
2022-09-18T12:24:35.674Z,23.56
2022-09-18T12:27:08.636Z,23.56
2022-09-18T12:29:41.685Z,23.56
2022-09-18T12:32:14.363Z,23.56
2022-09-18T12:34:47.645Z,23.56
2022-09-18T12:37:20.785Z,23.57
2022-09-18T12:39:54.373Z,23.57
2022-09-18T12:42:27.349Z,23.57
2022-09-18T12:45:00.345Z,23.57
2022-09-18T12:47:33.354Z,23.58
2022-09-18T12:50:06.297Z,23.58
2022-09-18T12:52:55.238Z,23.59
2022-09-18T12:55:12.275Z,23.59
2022-09-18T12:57:45.185Z,23.60
2022-09-18T13:00:18.148Z,23.60
2022-09-18T13:02:54.123Z,23.61
2022-09-18T13:05:27.128Z,23.61
2022-09-18T13:08:00.429Z,23.61
2022-09-18T13:10:33.088Z,23.61
2022-09-18T13:13:06.146Z,23.61
2022-09-18T13:15:39.245Z,23.61
2022-09-18T13:18:12.810Z,23.60
2022-09-18T13:20:45.860Z,23.60
2022-09-18T13:23:19.038Z,23.60
2022-09-18T13:25:51.845Z,23.59
2022-09-18T13:28:24.912Z,23.59
2022-09-18T13:30:58.080Z,23.58
2022-09-18T13:33:31.100Z,23.58
2022-09-18T13:36:04.193Z,23.57
2022-09-18T13:38:37.077Z,23.57
2022-09-18T13:41:09.785Z,23.56
2022-09-18T13:43:42.863Z,23.56
2022-09-18T13:46:15.795Z,23.55
2022-09-18T13:48:48.804Z,23.55
2022-09-18T13:51:22.197Z,23.54
2022-09-18T13:53:54.931Z,23.54
2022-09-18T13:56:27.791Z,23.53
2022-09-18T13:59:01.157Z,23.53
2022-09-18T14:01:34.151Z,23.52
2022-09-18T14:04:07.015Z,23.52
2022-09-18T14:06:39.856Z,23.51
2022-09-18T14:09:12.954Z,23.51
2022-09-18T14:11:45.985Z,23.50
2022-09-18T14:14:19.153Z,23.50
2022-09-18T14:16:52.198Z,23.50
2022-09-18T14:19:25.316Z,23.49
2022-09-18T14:21:59.184Z,23.49
2022-09-18T14:24:32.198Z,23.49
2022-09-18T14:27:05.195Z,23.48
2022-09-18T14:29:38.176Z,23.48
2022-09-18T14:32:11.107Z,23.47
2022-09-18T14:34:44.079Z,23.47
2022-09-18T14:37:17.236Z,23.46
2022-09-18T14:39:50.186Z,23.46
2022-09-18T14:42:22.996Z,23.46
2022-09-18T14:44:56.222Z,23.46
2022-09-18T14:47:29.238Z,23.45
2022-09-18T14:50:01.958Z,23.45
2022-09-18T14:52:38.234Z,23.45
2022-09-18T14:55:11.310Z,23.45
2022-09-18T14:57:44.264Z,23.44
2022-09-18T15:00:17.141Z,23.44
2022-09-18T15:02:50.281Z,23.44
2022-09-18T15:05:23.224Z,23.43
2022-09-18T15:07:56.276Z,23.43
2022-09-18T15:10:29.047Z,23.43
2022-09-18T15:13:02.229Z,23.43
2022-09-18T15:15:35.076Z,23.42
2022-09-18T15:18:07.926Z,23.42
2022-09-18T15:20:41.045Z,23.42
2022-09-18T15:23:16.931Z,23.41
2022-09-18T15:25:50.173Z,23.41
2022-09-18T15:28:23.056Z,23.41
2022-09-18T15:30:56.103Z,23.41
2022-09-18T15:33:29.174Z,23.41
2022-09-18T15:36:02.075Z,23.41
2022-09-18T15:38:35.084Z,23.40
2022-09-18T15:41:08.177Z,23.40
2022-09-18T15:43:41.302Z,23.40
2022-09-18T15:46:14.156Z,23.40
2022-09-18T15:48:47.007Z,23.40
2022-09-18T15:51:20.280Z,23.39
2022-09-18T15:53:53.136Z,23.39
2022-09-18T15:56:26.136Z,23.39
2022-09-18T15:58:59.367Z,23.38
2022-09-18T16:01:32.315Z,23.38
2022-09-18T16:04:08.585Z,23.38
2022-09-18T16:06:38.358Z,23.38
2022-09-18T16:09:11.384Z,23.37
2022-09-18T16:11:44.140Z,23.38
2022-09-18T16:14:17.030Z,23.38
2022-09-18T16:16:50.087Z,23.38
2022-09-18T16:19:23.387Z,23.38
2022-09-18T16:21:56.166Z,23.38
2022-09-18T16:24:29.039Z,23.38
2022-09-18T16:27:02.172Z,23.38
2022-09-18T16:29:35.085Z,23.38
2022-09-18T16:32:08.036Z,23.38
2022-09-18T16:34:41.075Z,23.38
2022-09-18T16:37:14.300Z,23.38
2022-09-18T16:39:47.413Z,23.38
2022-09-18T16:42:20.518Z,23.38
2022-09-18T16:44:53.439Z,23.37
2022-09-18T16:47:26.358Z,23.37
2022-09-18T16:49:59.284Z,23.37
2022-09-18T16:52:32.111Z,23.37
2022-09-18T16:55:05.507Z,23.37
2022-09-18T16:57:38.269Z,23.38
2022-09-18T17:00:11.136Z,23.38
2022-09-18T17:02:44.164Z,23.38
2022-09-18T17:05:17.111Z,23.38
2022-09-18T17:07:50.126Z,23.39
2022-09-18T17:10:23.283Z,23.39
2022-09-18T17:12:56.254Z,23.39
2022-09-18T17:15:29.150Z,23.40
2022-09-18T17:18:02.415Z,23.40
2022-09-18T17:20:35.256Z,23.41
2022-09-18T17:23:08.284Z,23.42
2022-09-18T17:25:41.124Z,23.42
2022-09-18T17:28:28.334Z,23.43
2022-09-18T17:31:01.132Z,23.44
2022-09-18T17:33:34.472Z,23.45
2022-09-18T17:36:07.144Z,23.45
2022-09-18T17:38:40.236Z,23.46
2022-09-18T17:41:13.330Z,23.47
2022-09-18T17:43:46.403Z,23.48
2022-09-18T17:46:19.263Z,23.49
2022-09-18T17:48:52.369Z,23.50
2022-09-18T17:51:28.450Z,23.51
2022-09-18T17:53:58.512Z,23.51
2022-09-18T17:56:31.540Z,23.52
2022-09-18T17:59:04.645Z,23.53
2022-09-18T18:01:37.539Z,23.54
2022-09-18T18:04:10.481Z,23.54
2022-09-18T18:06:43.497Z,23.55
2022-09-18T18:09:16.455Z,23.56
2022-09-18T18:11:49.200Z,23.57
2022-09-18T18:14:22.318Z,23.57
2022-09-18T18:16:55.572Z,23.58
2022-09-18T18:19:28.568Z,23.58
2022-09-18T18:22:01.252Z,23.59
2022-09-18T18:24:34.490Z,23.60
2022-09-18T18:27:07.355Z,23.60
2022-09-18T18:29:40.403Z,23.61
2022-09-18T18:32:13.490Z,23.62
2022-09-18T18:34:46.516Z,23.62
2022-09-18T18:37:19.360Z,23.63
2022-09-18T18:39:52.702Z,23.63
2022-09-18T18:42:25.599Z,23.64
2022-09-18T18:44:58.679Z,23.65
2022-09-18T18:47:31.388Z,23.65
2022-09-18T18:50:04.651Z,23.66
2022-09-18T18:52:37.354Z,23.66
2022-09-18T18:55:10.257Z,23.66
2022-09-18T18:57:43.402Z,23.67
2022-09-18T19:00:16.588Z,23.67
2022-09-18T19:02:49.421Z,23.67
2022-09-18T19:05:22.263Z,23.68
2022-09-18T19:07:55.326Z,23.68
2022-09-18T19:10:28.272Z,23.68
2022-09-18T19:13:01.422Z,23.68
2022-09-18T19:15:38.353Z,23.67
2022-09-18T19:18:08.114Z,23.67
2022-09-18T19:20:41.401Z,23.66
2022-09-18T19:23:14.619Z,23.66
2022-09-18T19:25:47.585Z,23.65
2022-09-18T19:28:20.530Z,23.65
2022-09-18T19:30:53.578Z,23.66
2022-09-18T19:33:26.575Z,23.66
2022-09-18T19:35:59.371Z,23.66
2022-09-18T19:38:32.404Z,23.66
2022-09-18T19:41:05.752Z,23.66
2022-09-18T19:43:38.810Z,23.66
2022-09-18T19:46:12.840Z,23.66
2022-09-18T19:48:45.706Z,23.66
2022-09-18T19:51:18.319Z,23.66
2022-09-18T19:53:51.718Z,23.67
2022-09-18T19:56:42.211Z,23.67
2022-09-18T19:58:57.686Z,23.67
2022-09-18T20:01:30.777Z,23.67
2022-09-18T20:04:03.757Z,23.67
2022-09-18T20:06:36.736Z,23.67
2022-09-18T20:09:09.365Z,23.67
2022-09-18T20:11:46.489Z,23.67
2022-09-18T20:14:15.659Z,23.67
2022-09-18T20:16:48.581Z,23.67
2022-09-18T20:19:22.791Z,23.67
2022-09-18T20:21:55.739Z,23.68
2022-09-18T20:24:42.462Z,23.68
2022-09-18T20:27:15.408Z,23.68
2022-09-18T20:29:48.537Z,23.67
2022-09-18T20:32:21.542Z,23.66
2022-09-18T20:34:54.755Z,23.64
2022-09-18T20:37:27.751Z,23.62
2022-09-18T20:40:00.606Z,23.60
2022-09-18T20:42:33.765Z,23.59
2022-09-18T20:45:06.682Z,23.58
2022-09-18T20:47:39.910Z,23.57
2022-09-18T20:50:12.715Z,23.56
2022-09-18T20:52:45.465Z,23.55
2022-09-18T20:55:18.833Z,23.54
2022-09-18T20:57:51.787Z,23.53
2022-09-18T21:00:24.849Z,23.52
2022-09-18T21:02:57.806Z,23.50
2022-09-18T21:05:30.854Z,23.49
2022-09-18T21:08:03.610Z,23.48
2022-09-18T21:10:36.781Z,23.46
2022-09-18T21:13:09.752Z,23.45
2022-09-18T21:15:42.808Z,23.44
2022-09-18T21:18:15.773Z,23.43
2022-09-18T21:20:48.820Z,23.42
2022-09-18T21:23:21.823Z,23.41
2022-09-18T21:25:54.799Z,23.40
2022-09-18T21:28:27.837Z,23.39
2022-09-18T21:31:00.852Z,23.38
2022-09-18T21:33:33.743Z,23.37
2022-09-18T21:36:06.655Z,23.36
2022-09-18T21:38:39.858Z,23.36
2022-09-18T21:41:12.890Z,23.35
2022-09-18T21:43:45.515Z,23.34
2022-09-18T21:46:18.964Z,23.33
2022-09-18T21:48:51.634Z,23.32
2022-09-18T21:51:24.858Z,23.31
2022-09-18T21:53:57.873Z,23.30
2022-09-18T21:56:30.912Z,23.29
2022-09-18T21:59:03.877Z,23.28
2022-09-18T22:01:37.894Z,23.27
2022-09-18T22:04:10.894Z,23.26
2022-09-18T22:06:43.848Z,23.25
2022-09-18T22:09:16.865Z,23.24
2022-09-18T22:11:49.815Z,23.23
2022-09-18T22:14:22.905Z,23.21
2022-09-18T22:16:55.637Z,23.20
2022-09-18T22:19:28.942Z,23.19
2022-09-18T22:22:01.811Z,23.18
2022-09-18T22:24:34.854Z,23.17
2022-09-18T22:27:07.924Z,23.16
2022-09-18T22:29:40.903Z,23.15
2022-09-18T22:32:13.865Z,23.14
2022-09-18T22:34:46.982Z,23.13
2022-09-18T22:37:19.947Z,23.11
2022-09-18T22:39:52.981Z,23.10
2022-09-18T22:42:25.978Z,23.09
2022-09-18T22:44:58.875Z,23.08
2022-09-18T22:47:31.920Z,23.07
2022-09-18T22:50:04.999Z,23.05
2022-09-18T22:52:37.895Z,23.04
2022-09-18T22:55:11.008Z,23.02
2022-09-18T22:57:43.864Z,23.01
2022-09-18T23:00:16.983Z,22.99
2022-09-18T23:02:49.975Z,22.98
2022-09-18T23:05:23.029Z,22.96
2022-09-18T23:07:55.979Z,22.94
2022-09-18T23:10:28.960Z,22.93
2022-09-18T23:13:01.903Z,22.92
2022-09-18T23:15:34.992Z,22.91
2022-09-18T23:18:08.006Z,22.90
2022-09-18T23:20:41.140Z,22.89
2022-09-18T23:23:13.939Z,22.87
2022-09-18T23:25:47.001Z,22.87
2022-09-18T23:28:19.999Z,22.86
2022-09-18T23:30:53.016Z,22.85
2022-09-18T23:33:26.035Z,22.85
2022-09-18T23:35:59.185Z,22.84
2022-09-18T23:38:32.022Z,22.83
2022-09-18T23:41:05.011Z,22.83
2022-09-18T23:43:37.976Z,22.82
2022-09-18T23:46:11.127Z,22.81
2022-09-18T23:48:43.938Z,22.80
2022-09-18T23:51:17.168Z,22.79
2022-09-18T23:53:50.039Z,22.78
2022-09-18T23:56:23.019Z,22.77
2022-09-18T23:58:56.084Z,22.76
